Accueil
METAR-TAF:

METAR-TAF

Aéroports :

Rutland Southern Vermont Regional Airport

Rutland, Vermont, États-Unis

latitude: 43-32N, longitude: 072-57W, altitude: 240 m

Observation

Le bulletin a été fait il y a 1 heure et 12 minutes, à 01:56 UTC
Vent calme
Température -11°C
Humidité 85%
Pression 1021 hPa
Visibilité: 16.1 km
Ciel clair

METAR: KRUT 110156Z AUTO 00000KT 10SM CLR M11/M13 A3016 RMK AO2 SLP236 T11111133 FZRANO PNO $

Heure: 22:08 (03:08 UTC)

Prévision

Le bulletin a été fait il y a 3 heures et 48 minutes, à 23:20 UTC
Prévision valable du 11 à 00 UTC au 11 à 24 UTC
Vent 3 kt de nord/nord-ouest
Visibilité: 10 km
Ciel clair
A partir de 11 à 2100 UTC
Vent kt de nord
Visibilité: 10 km
Nuages épars à une hauteur de 5000 ft

TAF: KRUT 102320Z 1100/1124 33003KT P6SM SKC FM112100 00000KT P6SM SCT050

Observations et prévisions météorologiques de plus de 4000 aéroports (messages METAR et TAF).

Les stations disponibles sont représentées par des disques jaunes et rouges sur la carte.

Passer la souris dessus pour voir le nom de la station.

Cliquer dessus pour voir les observations et prévisions météorologiques.

Pour changer de carte: cliquez sur les boutons verts avec une croix noire pour zoomer, sur le bouton vert avec un tiret pour effectuer un zoom arrière, ou sur les flèches vertes pour les cartes adjacentes.


METAR-TAF: